createdAt,value
2023-02-05T00:00:19.760Z,12.10
2023-02-05T00:03:07.723Z,13.00
2023-02-05T00:05:35.865Z,13.20
2023-02-05T00:08:03.970Z,11.70
2023-02-05T00:10:31.931Z,12.80
2023-02-05T00:12:59.773Z,12.90
2023-02-05T00:15:27.999Z,13.80
2023-02-05T00:17:55.945Z,12.70
2023-02-05T00:20:23.892Z,11.80
2023-02-05T00:22:51.774Z,11.70
2023-02-05T00:25:19.687Z,13.20
2023-02-05T00:27:47.698Z,10.90
2023-02-05T00:30:15.623Z,10.60
2023-02-05T00:32:43.630Z,10.50
2023-02-05T00:35:11.714Z,10.80
2023-02-05T00:37:39.765Z,10.50
2023-02-05T00:40:08.014Z,9.80
2023-02-05T00:42:36.175Z,9.30
2023-02-05T00:45:04.377Z,9.20
2023-02-05T00:47:32.312Z,10.50
2023-02-05T00:50:00.242Z,9.80
2023-02-05T00:52:28.135Z,10.30
2023-02-05T00:54:56.088Z,10.40
2023-02-05T00:57:24.815Z,9.90
2023-02-05T00:59:53.873Z,10.10
2023-02-05T01:02:24.073Z,10.90
2023-02-05T01:04:52.809Z,9.50
2023-02-05T01:07:20.912Z,10.30
2023-02-05T01:09:49.645Z,9.10
2023-02-05T01:12:17.618Z,9.50
2023-02-05T01:14:45.863Z,9.00
2023-02-05T01:17:13.942Z,8.60
2023-02-05T01:19:41.991Z,8.80
2023-02-05T01:22:11.579Z,8.30
2023-02-05T01:24:39.884Z,9.60
2023-02-05T01:27:07.869Z,10.00
2023-02-05T01:29:35.885Z,8.90
2023-02-05T01:32:04.283Z,9.10
2023-02-05T01:34:32.296Z,8.00
2023-02-05T01:37:00.262Z,8.60
2023-02-05T01:39:28.203Z,8.70
2023-02-05T01:41:56.545Z,9.30
2023-02-05T01:44:25.286Z,9.00
2023-02-05T01:46:55.293Z,9.30
2023-02-05T01:49:43.821Z,9.70
2023-02-05T01:52:17.001Z,8.90
2023-02-05T01:54:48.841Z,9.50
2023-02-05T01:57:24.813Z,8.90
2023-02-05T01:59:53.360Z,9.50
2023-02-05T02:02:21.511Z,8.70
2023-02-05T02:04:55.830Z,8.20
2023-02-05T02:07:25.300Z,8.60
2023-02-05T02:09:55.817Z,8.10
2023-02-05T02:12:28.903Z,8.70
2023-02-05T02:15:01.154Z,7.70
2023-02-05T02:17:34.560Z,8.70
2023-02-05T02:20:06.955Z,8.70
2023-02-05T02:22:48.200Z,7.90
2023-02-05T02:25:38.828Z,8.20
2023-02-05T02:28:29.047Z,8.00
2023-02-05T02:31:12.605Z,8.10
2023-02-05T02:34:00.517Z,6.60
2023-02-05T02:36:47.721Z,7.10
2023-02-05T02:39:44.633Z,7.10
2023-02-05T02:42:18.831Z,6.80
2023-02-05T02:44:54.010Z,6.20
2023-02-05T02:47:25.840Z,6.40
2023-02-05T02:50:02.234Z,5.70
2023-02-05T02:52:36.431Z,5.50
2023-02-05T02:55:09.600Z,6.10
2023-02-05T02:57:44.851Z,6.10
2023-02-05T03:00:23.253Z,6.80
2023-02-05T03:03:01.350Z,6.50
2023-02-05T03:05:33.736Z,6.40
2023-02-05T03:08:20.876Z,6.40
2023-02-05T03:11:04.892Z,6.60
2023-02-05T03:13:36.862Z,6.20
2023-02-05T03:16:08.790Z,6.80
2023-02-05T03:18:39.886Z,7.00
2023-02-05T03:21:31.913Z,6.50
2023-02-05T03:24:03.908Z,7.10
2023-02-05T03:26:36.904Z,7.10
2023-02-05T03:29:16.319Z,7.00
2023-02-05T03:32:42.908Z,5.90
2023-02-05T03:36:00.902Z,6.50
2023-02-05T03:39:36.907Z,6.30
2023-02-05T03:42:34.937Z,5.90
2023-02-05T03:45:32.089Z,5.50
2023-02-05T03:48:39.681Z,5.90
2023-02-05T03:51:37.415Z,5.50
2023-02-05T03:54:23.946Z,6.30
2023-02-05T04:04:27.511Z,5.40
2023-02-05T04:06:57.218Z,5.80
2023-02-05T04:09:25.403Z,5.80
2023-02-05T04:11:54.074Z,5.20
2023-02-05T04:14:22.080Z,5.50
2023-02-05T04:16:50.220Z,5.80
2023-02-05T04:19:19.414Z,5.40
2023-02-05T04:21:47.895Z,5.90
2023-02-05T04:24:16.252Z,4.80
2023-02-05T04:26:45.373Z,4.50
2023-02-05T04:29:13.748Z,4.80
2023-02-05T04:31:45.255Z,4.10
2023-02-05T04:34:13.690Z,4.50
2023-02-05T04:36:42.087Z,5.00
2023-02-05T04:39:10.332Z,4.90
2023-02-05T04:41:38.406Z,4.70
2023-02-05T04:44:07.016Z,4.90
2023-02-05T04:46:35.261Z,5.60
2023-02-05T04:49:03.488Z,4.60
2023-02-05T04:51:31.519Z,4.70
2023-02-05T04:53:59.582Z,5.50
2023-02-05T04:56:28.264Z,5.50
2023-02-05T04:58:56.459Z,5.40
2023-02-05T05:01:24.507Z,5.60
2023-02-05T05:03:52.686Z,5.10
2023-02-05T05:06:20.960Z,5.70
2023-02-05T05:08:49.028Z,6.70
2023-02-05T05:11:19.695Z,5.50
2023-02-05T05:13:49.591Z,6.30
2023-02-05T05:16:18.418Z,5.30
2023-02-05T05:18:46.497Z,4.70
2023-02-05T05:21:14.617Z,8.10
2023-02-05T05:23:42.947Z,5.20
2023-02-05T05:26:12.487Z,5.30
2023-02-05T05:28:40.766Z,5.70
2023-02-05T05:31:17.334Z,6.00
2023-02-05T05:33:46.045Z,6.20
2023-02-05T05:36:14.626Z,5.70
2023-02-05T05:38:43.842Z,11.90
2023-02-05T05:41:41.091Z,5.80
2023-02-05T05:44:10.364Z,6.00
2023-02-05T05:46:38.528Z,5.60
2023-02-05T05:49:06.706Z,6.50
2023-02-05T05:51:34.804Z,6.40
2023-02-05T05:54:02.954Z,9.80
2023-02-05T05:56:31.023Z,14.00
2023-02-05T05:58:59.074Z,10.40
2023-02-05T06:01:27.773Z,8.70
2023-02-05T06:03:56.059Z,8.80
2023-02-05T06:06:24.223Z,8.80
2023-02-05T06:08:52.288Z,6.00
2023-02-05T06:11:20.359Z,7.40
2023-02-05T06:13:48.431Z,5.80
2023-02-05T06:16:16.562Z,5.70
2023-02-05T06:18:44.790Z,12.00
2023-02-05T06:21:12.877Z,12.30
2023-02-05T06:23:40.927Z,8.60
2023-02-05T06:26:09.031Z,6.10
2023-02-05T06:28:37.164Z,7.30
2023-02-05T06:31:05.714Z,7.60
2023-02-05T06:33:33.922Z,6.30
2023-02-05T06:36:02.098Z,6.20
2023-02-05T06:38:30.374Z,6.30
2023-02-05T06:40:58.464Z,7.80
2023-02-05T06:43:26.653Z,6.70
2023-02-05T06:45:55.925Z,5.80
2023-02-05T06:48:23.984Z,5.80
2023-02-05T06:50:52.064Z,6.00
2023-02-05T06:53:20.242Z,5.20
2023-02-05T06:55:48.410Z,5.20
2023-02-05T06:58:16.397Z,6.00
2023-02-05T07:00:44.312Z,8.00
2023-02-05T07:03:12.310Z,6.50
2023-02-05T07:05:40.836Z,6.60
2023-02-05T07:08:09.177Z,6.10
2023-02-05T07:10:37.347Z,6.90
2023-02-05T07:13:06.077Z,6.40
2023-02-05T07:15:37.684Z,11.00
2023-02-05T07:18:06.783Z,7.10
2023-02-05T07:20:34.977Z,6.20
2023-02-05T07:23:03.130Z,7.90
2023-02-05T07:25:36.646Z,6.70
2023-02-05T07:28:06.902Z,7.00
2023-02-05T07:30:36.377Z,5.90
2023-02-05T07:33:04.942Z,9.80
2023-02-05T07:35:37.345Z,7.50
2023-02-05T07:38:06.622Z,8.90
2023-02-05T07:40:34.756Z,6.60
2023-02-05T07:43:02.798Z,9.50
2023-02-05T07:45:30.917Z,6.40
2023-02-05T07:47:59.014Z,8.00
2023-02-05T07:50:26.960Z,7.20
2023-02-05T07:52:55.193Z,7.00
2023-02-05T07:55:23.510Z,10.70
2023-02-05T07:57:51.482Z,6.60
2023-02-05T08:00:20.021Z,6.80
2023-02-05T08:02:48.152Z,7.30
2023-02-05T08:05:16.243Z,8.10
2023-02-05T08:07:44.221Z,12.00
2023-02-05T08:10:14.785Z,8.30
2023-02-05T08:12:42.715Z,10.40
2023-02-05T08:15:11.113Z,8.50
2023-02-05T08:17:39.036Z,7.30
2023-02-05T08:20:07.903Z,8.30
2023-02-05T08:22:38.553Z,12.60
2023-02-05T08:25:09.229Z,11.00
2023-02-05T08:27:38.060Z,15.90
2023-02-05T08:30:09.122Z,11.40
2023-02-05T08:32:37.185Z,10.80
2023-02-05T08:35:06.060Z,10.70
2023-02-05T08:37:34.804Z,10.90
2023-02-05T08:40:02.916Z,8.90
2023-02-05T08:42:30.890Z,8.90
2023-02-05T08:45:00.118Z,14.50
2023-02-05T08:47:28.293Z,9.40
2023-02-05T08:49:56.430Z,6.80
2023-02-05T08:52:24.401Z,7.90
2023-02-05T08:54:52.619Z,8.90
2023-02-05T08:57:20.543Z,7.40
2023-02-05T08:59:48.717Z,7.60
2023-02-05T09:02:16.831Z,9.00
2023-02-05T09:04:45.091Z,8.00
2023-02-05T09:07:13.133Z,11.00
2023-02-05T09:09:41.409Z,8.00
2023-02-05T09:12:10.918Z,8.20
2023-02-05T09:14:39.595Z,8.40
2023-02-05T09:17:09.567Z,12.30
2023-02-05T09:19:39.736Z,10.60
2023-02-05T09:22:09.073Z,9.30
2023-02-05T09:24:37.984Z,7.80
2023-02-05T09:27:06.749Z,6.30
2023-02-05T09:29:34.988Z,5.30
2023-02-05T09:32:03.062Z,5.80
2023-02-05T09:34:32.482Z,7.90
2023-02-05T09:37:00.492Z,6.00
2023-02-05T09:40:12.296Z,6.30
2023-02-05T09:42:21.409Z,6.60
2023-02-05T09:45:02.026Z,6.70
2023-02-05T09:47:36.853Z,7.10
2023-02-05T09:50:26.155Z,7.80
2023-02-05T09:52:59.941Z,6.80
2023-02-05T09:55:31.446Z,6.40
2023-02-05T09:58:04.874Z,6.70
2023-02-05T10:01:14.983Z,7.10
2023-02-05T10:03:56.305Z,6.20
2023-02-05T10:06:39.843Z,6.20
2023-02-05T10:09:24.684Z,6.20
2023-02-05T10:11:57.107Z,6.10
2023-02-05T10:14:31.515Z,5.70
2023-02-05T10:17:21.991Z,15.10
2023-02-05T10:20:23.396Z,6.00
2023-02-05T10:23:29.354Z,5.40
2023-02-05T10:29:16.484Z,5.50
2023-02-05T10:32:03.969Z,5.90
2023-02-05T10:34:42.018Z,6.40
2023-02-05T10:37:18.718Z,4.90
2023-02-05T10:39:49.630Z,4.30
2023-02-05T10:42:17.552Z,4.70
2023-02-05T10:44:49.311Z,5.60
2023-02-05T10:47:25.404Z,5.70
2023-02-05T10:50:46.190Z,4.70
2023-02-05T10:53:18.138Z,3.70
2023-02-05T10:55:46.264Z,4.70
2023-02-05T10:58:38.105Z,4.50
2023-02-05T11:01:20.203Z,3.90
2023-02-05T11:03:52.253Z,7.50
2023-02-05T11:06:22.149Z,4.60
2023-02-05T11:08:50.394Z,4.30
2023-02-05T11:11:25.142Z,4.40
2023-02-05T11:14:21.056Z,4.10
2023-02-05T11:16:49.114Z,4.20
2023-02-05T11:19:27.097Z,3.80
2023-02-05T11:21:57.749Z,3.70
2023-02-05T11:24:25.819Z,7.10
2023-02-05T11:27:26.510Z,4.40
2023-02-05T11:29:57.063Z,3.30
2023-02-05T11:32:37.542Z,6.00
2023-02-05T11:35:25.894Z,5.10
2023-02-05T11:38:06.719Z,3.40
2023-02-05T11:40:36.404Z,8.00
2023-02-05T11:43:16.233Z,6.00
2023-02-05T11:45:51.080Z,5.30
2023-02-05T11:48:37.773Z,6.50
2023-02-05T11:51:10.136Z,4.00
2023-02-05T11:53:44.369Z,4.00
2023-02-05T11:56:21.476Z,5.80
2023-02-05T11:59:01.814Z,28.70
2023-02-05T12:01:34.027Z,7.60
2023-02-05T12:04:11.301Z,10.00
2023-02-05T12:06:53.521Z,7.20
2023-02-05T12:09:24.242Z,6.80
2023-02-05T12:12:38.564Z,8.50
2023-02-05T12:23:00.515Z,6.80
2023-02-05T12:25:42.582Z,6.10
2023-02-05T12:28:34.946Z,5.40
2023-02-05T12:31:17.210Z,5.20
2023-02-05T12:34:00.346Z,8.30
2023-02-05T12:36:59.210Z,7.90
2023-02-05T12:39:27.244Z,7.30
2023-02-05T12:42:13.335Z,8.90
2023-02-05T12:44:51.848Z,9.30
2023-02-05T12:47:41.939Z,8.30
2023-02-05T12:50:32.297Z,9.10
2023-02-05T12:53:18.624Z,12.80
2023-02-05T12:56:06.977Z,8.90
2023-02-05T12:58:43.553Z,12.20
2023-02-05T13:01:18.181Z,11.30
2023-02-05T13:03:51.638Z,8.90
2023-02-05T13:06:42.438Z,8.20
2023-02-05T13:09:20.742Z,11.30
2023-02-05T13:12:01.024Z,16.20
2023-02-05T13:14:40.479Z,11.20
2023-02-05T13:17:17.406Z,8.70
2023-02-05T13:19:51.832Z,7.70
2023-02-05T13:22:44.320Z,8.50
2023-02-05T13:25:38.226Z,9.10
2023-02-05T13:28:38.626Z,8.10
2023-02-05T13:31:17.406Z,9.50
2023-02-05T13:33:45.755Z,15.30
2023-02-05T13:36:40.832Z,10.70
2023-02-05T13:39:34.306Z,11.50
2023-02-05T13:42:06.459Z,8.70
2023-02-05T13:44:55.937Z,9.00
2023-02-05T13:47:42.027Z,8.60
2023-02-05T13:50:28.364Z,9.00
2023-02-05T13:53:13.945Z,8.10
2023-02-05T13:56:10.650Z,8.30
2023-02-05T13:59:04.988Z,8.20
2023-02-05T14:01:42.757Z,22.90
2023-02-05T14:04:19.202Z,11.90
2023-02-05T14:07:18.002Z,9.10
2023-02-05T14:10:01.139Z,9.70
2023-02-05T14:12:35.637Z,13.60
2023-02-05T14:15:16.440Z,10.30
2023-02-05T14:17:44.398Z,15.20
2023-02-05T14:20:24.346Z,10.60
2023-02-05T14:23:03.665Z,9.40
2023-02-05T14:25:46.276Z,9.40
2023-02-05T14:28:17.866Z,9.80
2023-02-05T14:30:59.447Z,18.50
2023-02-05T14:33:35.658Z,11.50
2023-02-05T14:36:16.181Z,10.90
2023-02-05T14:38:59.502Z,7.90
2023-02-05T14:41:42.091Z,7.10
2023-02-05T14:44:13.057Z,6.90
2023-02-05T14:46:52.525Z,7.90
2023-02-05T14:49:28.530Z,10.30
2023-02-05T14:52:03.492Z,10.80
2023-02-05T14:54:42.463Z,11.20
2023-02-05T14:57:26.632Z,10.50
2023-02-05T15:00:00.022Z,10.40
2023-02-05T15:03:05.160Z,9.50
2023-02-05T15:05:37.054Z,9.90
2023-02-05T15:08:21.568Z,9.50
2023-02-05T15:11:03.375Z,11.00
2023-02-05T15:13:32.382Z,11.30
2023-02-05T15:16:12.464Z,14.10
2023-02-05T15:18:51.872Z,15.10
2023-02-05T15:21:19.819Z,11.90
2023-02-05T15:23:53.708Z,12.60
2023-02-05T15:26:39.414Z,17.50
2023-02-05T15:29:16.800Z,28.60
2023-02-05T15:32:36.378Z,17.10
2023-02-05T15:35:10.820Z,14.50
2023-02-05T15:37:45.359Z,14.70
2023-02-05T15:40:25.111Z,17.00
2023-02-05T15:42:59.486Z,17.40
2023-02-05T15:45:27.559Z,18.70
2023-02-05T15:47:59.931Z,15.10
2023-02-05T15:50:30.574Z,16.50
2023-02-05T15:52:59.757Z,14.60
2023-02-05T15:55:29.231Z,16.10
2023-02-05T15:58:04.743Z,15.60
2023-02-05T16:00:37.923Z,14.20
2023-02-05T16:03:06.951Z,13.50
2023-02-05T16:05:35.438Z,14.30
2023-02-05T16:08:05.690Z,13.90
2023-02-05T16:10:35.134Z,13.90
2023-02-05T16:13:06.184Z,11.70
2023-02-05T16:15:43.383Z,15.50
2023-02-05T16:18:19.102Z,13.00
2023-02-05T16:20:53.620Z,12.10
2023-02-05T16:23:44.672Z,12.90
2023-02-05T16:26:21.784Z,11.80
2023-02-05T16:28:58.277Z,14.20
2023-02-05T16:31:28.359Z,12.00
2023-02-05T16:34:04.245Z,11.20
2023-02-05T16:36:37.105Z,11.00
2023-02-05T16:39:16.848Z,10.30
2023-02-05T16:41:45.575Z,10.60
2023-02-05T16:44:30.219Z,10.90
2023-02-05T16:47:18.167Z,10.20
2023-02-05T16:49:48.479Z,10.70
2023-02-05T16:52:32.026Z,10.30
2023-02-05T16:55:29.038Z,9.90
2023-02-05T16:58:05.560Z,9.90
2023-02-05T17:00:34.492Z,9.10
2023-02-05T17:03:16.502Z,8.40
2023-02-05T17:05:44.981Z,9.80
2023-02-05T17:08:13.057Z,9.90
2023-02-05T17:10:55.359Z,23.40
2023-02-05T17:13:44.569Z,13.90
2023-02-05T17:16:32.770Z,23.90
2023-02-05T17:19:04.636Z,17.50
2023-02-05T17:21:34.960Z,17.50
2023-02-05T17:24:09.392Z,14.50
2023-02-05T17:26:41.062Z,14.10
2023-02-05T17:29:15.825Z,11.30
2023-02-05T17:31:44.258Z,10.70
2023-02-05T17:34:16.161Z,11.90
2023-02-05T17:36:45.112Z,11.90
2023-02-05T17:39:13.257Z,15.40
2023-02-05T17:42:00.482Z,13.00
2023-02-05T17:44:28.713Z,14.50
2023-02-05T17:46:59.162Z,16.70
2023-02-05T17:49:27.604Z,13.80
2023-02-05T17:51:55.951Z,33.30
2023-02-05T17:54:25.734Z,22.40
2023-02-05T17:56:56.937Z,20.90
2023-02-05T17:59:26.266Z,14.50
2023-02-05T18:01:54.530Z,16.50
2023-02-05T18:04:22.752Z,17.20
2023-02-05T18:06:51.025Z,16.90
2023-02-05T18:09:20.133Z,12.40
2023-02-05T18:11:48.291Z,18.80
2023-02-05T18:14:16.292Z,14.80
2023-02-05T18:16:44.921Z,14.10
2023-02-05T18:19:14.143Z,14.00
2023-02-05T18:21:42.431Z,13.30
2023-02-05T18:24:10.515Z,13.70
2023-02-05T18:26:38.583Z,12.90
2023-02-05T18:29:06.642Z,11.60
2023-02-05T18:31:35.435Z,10.50
2023-02-05T18:34:03.907Z,11.60
2023-02-05T18:36:31.976Z,10.70
2023-02-05T18:39:00.250Z,10.20
2023-02-05T18:41:28.728Z,11.10
2023-02-05T18:43:57.802Z,11.40
2023-02-05T18:46:25.928Z,9.80
2023-02-05T18:48:54.916Z,9.10
2023-02-05T18:51:23.672Z,10.30
2023-02-05T18:53:52.584Z,9.60
2023-02-05T18:56:26.698Z,10.50
2023-02-05T18:59:03.072Z,9.40
2023-02-05T19:01:32.157Z,10.80
2023-02-05T19:04:02.369Z,11.30
2023-02-05T19:06:30.856Z,11.10
2023-02-05T19:09:00.646Z,12.30
2023-02-05T19:11:30.266Z,13.90
2023-02-05T19:14:00.613Z,17.00
2023-02-05T19:16:32.374Z,14.10
2023-02-05T19:19:00.990Z,13.20
2023-02-05T19:21:30.767Z,15.00
2023-02-05T19:24:05.668Z,15.40
2023-02-05T19:26:37.160Z,17.00
2023-02-05T19:29:08.474Z,15.80
2023-02-05T19:31:37.399Z,15.10
2023-02-05T19:34:06.450Z,17.20
2023-02-05T19:36:34.827Z,16.60
2023-02-05T19:39:06.340Z,15.80
2023-02-05T19:41:36.047Z,16.10
2023-02-05T19:44:07.538Z,17.60
2023-02-05T19:46:42.105Z,18.60
2023-02-05T19:49:16.170Z,18.80
2023-02-05T19:51:46.602Z,21.90
2023-02-05T19:54:15.488Z,22.80
2023-02-05T19:56:44.544Z,19.50
2023-02-05T19:59:13.292Z,29.10
2023-02-05T20:01:44.826Z,27.50
2023-02-05T20:04:18.528Z,29.70
2023-02-05T20:06:48.117Z,28.40
2023-02-05T20:09:17.245Z,27.50
2023-02-05T20:11:47.970Z,68.70
2023-02-05T20:14:17.580Z,69.50
2023-02-05T20:16:45.971Z,40.10
2023-02-05T20:19:16.791Z,37.90
2023-02-05T20:21:46.701Z,34.70
2023-02-05T20:24:16.640Z,27.00
2023-02-05T20:26:48.551Z,28.50
2023-02-05T20:29:35.486Z,28.40
2023-02-05T20:32:04.272Z,27.40
2023-02-05T20:34:35.875Z,26.90
2023-02-05T20:37:07.000Z,27.40
2023-02-05T20:39:39.720Z,33.80
2023-02-05T20:42:10.752Z,30.00
2023-02-05T20:44:39.425Z,27.40
2023-02-05T20:47:11.282Z,24.50
2023-02-05T20:49:41.739Z,24.50
2023-02-05T20:52:10.820Z,23.00
2023-02-05T20:54:39.238Z,23.60
2023-02-05T20:57:08.048Z,24.00
2023-02-05T20:59:37.331Z,23.30
2023-02-05T21:02:05.746Z,22.60
2023-02-05T21:04:34.352Z,23.20
2023-02-05T21:07:02.452Z,24.20
2023-02-05T21:09:30.527Z,22.90
2023-02-05T21:11:58.595Z,23.00
2023-02-05T21:14:26.667Z,22.10
2023-02-05T21:16:54.662Z,22.10
2023-02-05T21:19:24.175Z,21.70
2023-02-05T21:21:53.132Z,22.30
2023-02-05T21:24:21.713Z,22.10
2023-02-05T21:26:50.142Z,21.10
2023-02-05T21:29:20.856Z,21.40
2023-02-05T21:31:53.181Z,23.10
2023-02-05T21:34:27.088Z,22.70
2023-02-05T21:36:56.660Z,25.10
2023-02-05T21:39:26.221Z,23.90
2023-02-05T21:41:55.052Z,24.00
2023-02-05T21:44:24.402Z,24.30
2023-02-05T21:46:54.858Z,23.30
2023-02-05T21:49:23.310Z,22.50
2023-02-05T21:51:53.494Z,24.70
2023-02-05T21:54:25.350Z,22.90
2023-02-05T21:56:54.514Z,22.90
2023-02-05T21:59:23.420Z,25.40
2023-02-05T22:01:51.666Z,25.00
2023-02-05T22:04:20.100Z,24.50
2023-02-05T22:06:48.224Z,22.60
2023-02-05T22:09:17.018Z,20.50
2023-02-05T22:11:45.685Z,21.90
2023-02-05T22:14:13.767Z,22.80
2023-02-05T22:16:42.706Z,20.50
2023-02-05T22:19:11.232Z,22.20
2023-02-05T22:21:42.398Z,24.10
2023-02-05T22:24:15.012Z,27.70
2023-02-05T22:26:44.669Z,26.10
2023-02-05T22:29:15.407Z,23.40
2023-02-05T22:31:45.515Z,23.80
2023-02-05T22:34:13.795Z,25.60
2023-02-05T22:36:42.121Z,22.30
2023-02-05T22:39:10.347Z,29.50
2023-02-05T22:41:41.092Z,28.70
2023-02-05T22:44:11.490Z,30.40
2023-02-05T22:46:42.722Z,32.10
2023-02-05T22:49:13.320Z,29.60
2023-02-05T22:51:42.057Z,32.50
2023-02-05T22:54:12.307Z,31.60
2023-02-05T22:56:42.019Z,31.70
2023-02-05T22:59:10.101Z,28.20
2023-02-05T23:01:39.181Z,28.30
2023-02-05T23:04:09.373Z,25.30
2023-02-05T23:06:40.739Z,25.30
2023-02-05T23:09:13.808Z,23.50
2023-02-05T23:11:42.635Z,25.00
2023-02-05T23:14:12.263Z,22.50
2023-02-05T23:16:43.559Z,23.00
2023-02-05T23:19:16.042Z,23.40
2023-02-05T23:21:44.711Z,22.40
2023-02-05T23:24:13.433Z,23.80
2023-02-05T23:26:45.602Z,24.00
2023-02-05T23:29:15.651Z,23.60
2023-02-05T23:31:44.071Z,25.70
2023-02-05T23:34:12.579Z,30.50
2023-02-05T23:36:41.255Z,32.10
2023-02-05T23:39:09.613Z,27.90
2023-02-05T23:41:37.887Z,26.60
2023-02-05T23:44:13.740Z,28.80
2023-02-05T23:46:43.462Z,28.50
2023-02-05T23:49:12.443Z,26.40
2023-02-05T23:51:40.965Z,25.90
2023-02-05T23:54:11.290Z,28.00
2023-02-05T23:56:40.046Z,28.10
2023-02-05T23:59:09.884Z,26.70
